sensor_id;sensor_type;location;lat;lon;timestamp;P1;durP1;ratioP1;P2;durP2;ratioP2
5555;SDS011;2801;50.972;7.856;2022-12-18T00:01:26;37.60;;;13.87;;
5555;SDS011;2801;50.972;7.856;2022-12-18T00:04:07;36.60;;;15.00;;
5555;SDS011;2801;50.972;7.856;2022-12-18T00:06:45;35.60;;;14.97;;
5555;SDS011;2801;50.972;7.856;2022-12-18T00:09:15;35.50;;;14.93;;
5555;SDS011;2801;50.972;7.856;2022-12-18T00:11:43;34.40;;;13.33;;
5555;SDS011;2801;50.972;7.856;2022-12-18T00:14:12;26.97;;;12.73;;
5555;SDS011;2801;50.972;7.856;2022-12-18T00:16:42;33.70;;;14.93;;
5555;SDS011;2801;50.972;7.856;2022-12-18T00:19:11;16.87;;;8.47;;
5555;SDS011;2801;50.972;7.856;2022-12-18T00:21:40;14.20;;;7.17;;
5555;SDS011;2801;50.972;7.856;2022-12-18T00:24:09;17.23;;;7.50;;
5555;SDS011;2801;50.972;7.856;2022-12-18T00:26:38;24.40;;;11.13;;
5555;SDS011;2801;50.972;7.856;2022-12-18T00:29:07;14.27;;;6.37;;
5555;SDS011;2801;50.972;7.856;2022-12-18T00:31:43;17.57;;;7.43;;
5555;SDS011;2801;50.972;7.856;2022-12-18T00:34:11;16.00;;;7.30;;
5555;SDS011;2801;50.972;7.856;2022-12-18T00:36:39;26.50;;;11.27;;
5555;SDS011;2801;50.972;7.856;2022-12-18T00:39:09;21.67;;;10.10;;
5555;SDS011;2801;50.972;7.856;2022-12-18T00:41:37;22.87;;;10.17;;
5555;SDS011;2801;50.972;7.856;2022-12-18T00:44:25;20.53;;;11.23;;
5555;SDS011;2801;50.972;7.856;2022-12-18T00:46:51;25.87;;;11.97;;
5555;SDS011;2801;50.972;7.856;2022-12-18T00:49:19;23.40;;;10.67;;
5555;SDS011;2801;50.972;7.856;2022-12-18T00:51:47;23.33;;;10.03;;
5555;SDS011;2801;50.972;7.856;2022-12-18T00:54:14;20.43;;;9.23;;
5555;SDS011;2801;50.972;7.856;2022-12-18T00:56:42;16.37;;;7.83;;
5555;SDS011;2801;50.972;7.856;2022-12-18T00:59:15;21.43;;;9.87;;
5555;SDS011;2801;50.972;7.856;2022-12-18T01:01:44;18.50;;;9.73;;
5555;SDS011;2801;50.972;7.856;2022-12-18T01:04:12;16.40;;;9.37;;
5555;SDS011;2801;50.972;7.856;2022-12-18T01:06:40;17.10;;;8.30;;
5555;SDS011;2801;50.972;7.856;2022-12-18T01:09:07;14.00;;;7.87;;
5555;SDS011;2801;50.972;7.856;2022-12-18T01:11:35;10.23;;;5.97;;
5555;SDS011;2801;50.972;7.856;2022-12-18T01:14:02;11.33;;;6.27;;
5555;SDS011;2801;50.972;7.856;2022-12-18T01:16:31;16.83;;;6.97;;
5555;SDS011;2801;50.972;7.856;2022-12-18T01:18:59;15.97;;;7.03;;
5555;SDS011;2801;50.972;7.856;2022-12-18T01:21:28;13.47;;;7.23;;
5555;SDS011;2801;50.972;7.856;2022-12-18T01:23:59;15.77;;;7.17;;
5555;SDS011;2801;50.972;7.856;2022-12-18T01:26:28;9.67;;;4.43;;
5555;SDS011;2801;50.972;7.856;2022-12-18T01:28:56;15.40;;;7.27;;
5555;SDS011;2801;50.972;7.856;2022-12-18T01:31:28;13.43;;;6.27;;
5555;SDS011;2801;50.972;7.856;2022-12-18T01:34:04;11.13;;;6.47;;
5555;SDS011;2801;50.972;7.856;2022-12-18T01:36:34;13.67;;;6.90;;
5555;SDS011;2801;50.972;7.856;2022-12-18T01:39:04;13.93;;;6.03;;
5555;SDS011;2801;50.972;7.856;2022-12-18T01:41:40;11.17;;;5.97;;
5555;SDS011;2801;50.972;7.856;2022-12-18T01:49:57;12.43;;;6.13;;
5555;SDS011;2801;50.972;7.856;2022-12-18T01:52:28;11.37;;;5.90;;
5555;SDS011;2801;50.972;7.856;2022-12-18T01:54:58;11.67;;;6.33;;
5555;SDS011;2801;50.972;7.856;2022-12-18T01:57:27;10.07;;;4.20;;
5555;SDS011;2801;50.972;7.856;2022-12-18T01:59:56;11.17;;;5.00;;
5555;SDS011;2801;50.972;7.856;2022-12-18T02:02:33;9.37;;;4.63;;
5555;SDS011;2801;50.972;7.856;2022-12-18T02:05:00;9.70;;;5.60;;
5555;SDS011;2801;50.972;7.856;2022-12-18T02:10:19;15.17;;;6.43;;
5555;SDS011;2801;50.972;7.856;2022-12-18T02:13:12;9.83;;;5.17;;
5555;SDS011;2801;50.972;7.856;2022-12-18T02:25:00;10.97;;;6.00;;
5555;SDS011;2801;50.972;7.856;2022-12-18T02:27:39;9.47;;;4.73;;
5555;SDS011;2801;50.972;7.856;2022-12-18T02:30:12;14.03;;;6.77;;
5555;SDS011;2801;50.972;7.856;2022-12-18T02:32:42;11.50;;;5.27;;
5555;SDS011;2801;50.972;7.856;2022-12-18T02:35:17;9.63;;;5.53;;
5555;SDS011;2801;50.972;7.856;2022-12-18T02:37:54;12.97;;;6.00;;
5555;SDS011;2801;50.972;7.856;2022-12-18T02:40:23;8.50;;;4.80;;
5555;SDS011;2801;50.972;7.856;2022-12-18T02:42:53;9.07;;;4.97;;
5555;SDS011;2801;50.972;7.856;2022-12-18T02:45:21;11.03;;;5.40;;
5555;SDS011;2801;50.972;7.856;2022-12-18T02:47:48;11.23;;;5.63;;
5555;SDS011;2801;50.972;7.856;2022-12-18T02:50:25;14.87;;;5.67;;
5555;SDS011;2801;50.972;7.856;2022-12-18T02:53:10;9.30;;;5.20;;
5555;SDS011;2801;50.972;7.856;2022-12-18T02:58:58;11.47;;;5.73;;
5555;SDS011;2801;50.972;7.856;2022-12-18T03:02:11;6.73;;;4.50;;
5555;SDS011;2801;50.972;7.856;2022-12-18T03:05:10;10.77;;;5.37;;
5555;SDS011;2801;50.972;7.856;2022-12-18T03:08:37;6.47;;;4.53;;
5555;SDS011;2801;50.972;7.856;2022-12-18T03:11:11;12.40;;;6.60;;
5555;SDS011;2801;50.972;7.856;2022-12-18T03:13:50;9.00;;;5.37;;
5555;SDS011;2801;50.972;7.856;2022-12-18T03:16:23;8.93;;;5.97;;
5555;SDS011;2801;50.972;7.856;2022-12-18T03:19:05;10.10;;;5.80;;
5555;SDS011;2801;50.972;7.856;2022-12-18T03:21:47;12.23;;;6.17;;
5555;SDS011;2801;50.972;7.856;2022-12-18T03:24:19;12.93;;;6.13;;
5555;SDS011;2801;50.972;7.856;2022-12-18T03:26:51;12.13;;;6.80;;
5555;SDS011;2801;50.972;7.856;2022-12-18T03:29:28;14.17;;;6.23;;
5555;SDS011;2801;50.972;7.856;2022-12-18T03:32:26;12.57;;;5.47;;
5555;SDS011;2801;50.972;7.856;2022-12-18T03:35:00;13.13;;;6.53;;
5555;SDS011;2801;50.972;7.856;2022-12-18T03:37:31;12.03;;;5.73;;
5555;SDS011;2801;50.972;7.856;2022-12-18T03:39:59;14.27;;;7.00;;
5555;SDS011;2801;50.972;7.856;2022-12-18T03:42:30;14.40;;;6.20;;
5555;SDS011;2801;50.972;7.856;2022-12-18T03:48:02;10.60;;;5.13;;
5555;SDS011;2801;50.972;7.856;2022-12-18T03:56:28;8.93;;;4.57;;
5555;SDS011;2801;50.972;7.856;2022-12-18T03:59:02;6.70;;;3.93;;
5555;SDS011;2801;50.972;7.856;2022-12-18T04:01:32;4.13;;;2.73;;
5555;SDS011;2801;50.972;7.856;2022-12-18T04:04:12;7.83;;;3.33;;
5555;SDS011;2801;50.972;7.856;2022-12-18T04:06:42;12.27;;;5.67;;
5555;SDS011;2801;50.972;7.856;2022-12-18T04:09:13;12.73;;;5.77;;
5555;SDS011;2801;50.972;7.856;2022-12-18T04:11:41;9.90;;;5.70;;
5555;SDS011;2801;50.972;7.856;2022-12-18T04:14:11;13.37;;;5.67;;
5555;SDS011;2801;50.972;7.856;2022-12-18T04:16:43;14.50;;;6.43;;
5555;SDS011;2801;50.972;7.856;2022-12-18T04:19:10;12.17;;;5.80;;
5555;SDS011;2801;50.972;7.856;2022-12-18T04:21:37;13.70;;;6.57;;
5555;SDS011;2801;50.972;7.856;2022-12-18T04:24:04;12.93;;;5.93;;
5555;SDS011;2801;50.972;7.856;2022-12-18T04:26:31;12.53;;;6.57;;
5555;SDS011;2801;50.972;7.856;2022-12-18T04:28:58;7.93;;;3.40;;
5555;SDS011;2801;50.972;7.856;2022-12-18T04:31:25;12.03;;;6.00;;
5555;SDS011;2801;50.972;7.856;2022-12-18T04:33:52;10.13;;;4.73;;
5555;SDS011;2801;50.972;7.856;2022-12-18T04:36:19;3.67;;;2.60;;
5555;SDS011;2801;50.972;7.856;2022-12-18T04:38:47;10.63;;;5.57;;
5555;SDS011;2801;50.972;7.856;2022-12-18T04:41:14;7.93;;;4.90;;
5555;SDS011;2801;50.972;7.856;2022-12-18T04:43:41;10.17;;;6.03;;
5555;SDS011;2801;50.972;7.856;2022-12-18T04:46:09;9.00;;;4.97;;
5555;SDS011;2801;50.972;7.856;2022-12-18T04:48:36;5.80;;;3.03;;
5555;SDS011;2801;50.972;7.856;2022-12-18T04:51:05;10.93;;;4.43;;
5555;SDS011;2801;50.972;7.856;2022-12-18T04:53:33;6.57;;;3.43;;
5555;SDS011;2801;50.972;7.856;2022-12-18T04:56:06;11.43;;;5.87;;
5555;SDS011;2801;50.972;7.856;2022-12-18T04:58:40;12.03;;;5.57;;
5555;SDS011;2801;50.972;7.856;2022-12-18T05:01:11;11.07;;;5.97;;
5555;SDS011;2801;50.972;7.856;2022-12-18T05:03:45;10.70;;;5.73;;
5555;SDS011;2801;50.972;7.856;2022-12-18T05:06:14;17.07;;;7.40;;
5555;SDS011;2801;50.972;7.856;2022-12-18T05:08:41;12.87;;;6.40;;
5555;SDS011;2801;50.972;7.856;2022-12-18T05:11:10;15.30;;;7.40;;
5555;SDS011;2801;50.972;7.856;2022-12-18T05:13:42;13.07;;;6.23;;
5555;SDS011;2801;50.972;7.856;2022-12-18T05:16:11;13.73;;;6.77;;
5555;SDS011;2801;50.972;7.856;2022-12-18T05:18:41;17.23;;;7.97;;
5555;SDS011;2801;50.972;7.856;2022-12-18T05:21:11;15.07;;;6.90;;
5555;SDS011;2801;50.972;7.856;2022-12-18T05:23:40;21.73;;;8.90;;
5555;SDS011;2801;50.972;7.856;2022-12-18T05:26:09;11.77;;;6.87;;
5555;SDS011;2801;50.972;7.856;2022-12-18T05:28:44;14.00;;;6.97;;
5555;SDS011;2801;50.972;7.856;2022-12-18T05:31:12;21.20;;;8.23;;
5555;SDS011;2801;50.972;7.856;2022-12-18T05:33:41;13.23;;;6.53;;
5555;SDS011;2801;50.972;7.856;2022-12-18T05:36:11;21.63;;;8.67;;
5555;SDS011;2801;50.972;7.856;2022-12-18T05:38:40;17.43;;;7.83;;
5555;SDS011;2801;50.972;7.856;2022-12-18T05:41:08;13.37;;;6.10;;
5555;SDS011;2801;50.972;7.856;2022-12-18T05:43:39;10.63;;;4.80;;
5555;SDS011;2801;50.972;7.856;2022-12-18T05:46:12;9.20;;;4.57;;
5555;SDS011;2801;50.972;7.856;2022-12-18T05:48:44;22.90;;;10.03;;
5555;SDS011;2801;50.972;7.856;2022-12-18T05:51:12;16.83;;;6.90;;
5555;SDS011;2801;50.972;7.856;2022-12-18T05:53:43;17.60;;;7.77;;
5555;SDS011;2801;50.972;7.856;2022-12-18T05:56:11;14.17;;;7.07;;
5555;SDS011;2801;50.972;7.856;2022-12-18T05:58:45;10.20;;;5.13;;
5555;SDS011;2801;50.972;7.856;2022-12-18T06:03:44;22.30;;;8.27;;
5555;SDS011;2801;50.972;7.856;2022-12-18T06:06:13;12.90;;;5.97;;
5555;SDS011;2801;50.972;7.856;2022-12-18T06:08:41;51.40;;;13.00;;
5555;SDS011;2801;50.972;7.856;2022-12-18T06:11:12;22.63;;;9.50;;
5555;SDS011;2801;50.972;7.856;2022-12-18T06:13:42;14.80;;;7.17;;
5555;SDS011;2801;50.972;7.856;2022-12-18T06:16:09;18.60;;;8.10;;
5555;SDS011;2801;50.972;7.856;2022-12-18T06:18:39;10.47;;;4.33;;
5555;SDS011;2801;50.972;7.856;2022-12-18T06:21:05;14.40;;;6.93;;
5555;SDS011;2801;50.972;7.856;2022-12-18T06:23:32;18.10;;;7.33;;
5555;SDS011;2801;50.972;7.856;2022-12-18T06:26:07;14.90;;;7.27;;
5555;SDS011;2801;50.972;7.856;2022-12-18T06:28:37;17.00;;;7.83;;
5555;SDS011;2801;50.972;7.856;2022-12-18T06:31:04;15.20;;;7.70;;
5555;SDS011;2801;50.972;7.856;2022-12-18T06:33:33;16.87;;;7.70;;
5555;SDS011;2801;50.972;7.856;2022-12-18T06:36:03;13.97;;;7.43;;
5555;SDS011;2801;50.972;7.856;2022-12-18T06:38:37;16.57;;;7.20;;
5555;SDS011;2801;50.972;7.856;2022-12-18T06:41:07;16.43;;;8.10;;
5555;SDS011;2801;50.972;7.856;2022-12-18T06:43:35;17.47;;;8.70;;
5555;SDS011;2801;50.972;7.856;2022-12-18T06:46:04;16.70;;;6.47;;
5555;SDS011;2801;50.972;7.856;2022-12-18T06:48:32;15.37;;;6.53;;
5555;SDS011;2801;50.972;7.856;2022-12-18T06:51:00;14.83;;;7.30;;
5555;SDS011;2801;50.972;7.856;2022-12-18T06:53:27;16.27;;;6.33;;
5555;SDS011;2801;50.972;7.856;2022-12-18T06:56:03;14.77;;;6.80;;
5555;SDS011;2801;50.972;7.856;2022-12-18T06:58:36;16.17;;;7.07;;
5555;SDS011;2801;50.972;7.856;2022-12-18T07:01:05;12.37;;;6.47;;
5555;SDS011;2801;50.972;7.856;2022-12-18T07:03:35;7.53;;;3.93;;
5555;SDS011;2801;50.972;7.856;2022-12-18T07:06:12;15.73;;;7.83;;
5555;SDS011;2801;50.972;7.856;2022-12-18T07:08:42;16.43;;;8.20;;
5555;SDS011;2801;50.972;7.856;2022-12-18T07:11:11;15.10;;;7.67;;
5555;SDS011;2801;50.972;7.856;2022-12-18T07:13:40;18.63;;;7.63;;
5555;SDS011;2801;50.972;7.856;2022-12-18T07:16:13;8.53;;;4.13;;
5555;SDS011;2801;50.972;7.856;2022-12-18T07:18:50;21.27;;;8.87;;
5555;SDS011;2801;50.972;7.856;2022-12-18T07:21:18;15.37;;;7.83;;
5555;SDS011;2801;50.972;7.856;2022-12-18T07:23:47;19.53;;;8.47;;
5555;SDS011;2801;50.972;7.856;2022-12-18T07:26:15;21.17;;;8.97;;
5555;SDS011;2801;50.972;7.856;2022-12-18T07:28:46;18.00;;;8.50;;
5555;SDS011;2801;50.972;7.856;2022-12-18T07:31:17;14.47;;;6.83;;
5555;SDS011;2801;50.972;7.856;2022-12-18T07:33:47;9.67;;;4.37;;
5555;SDS011;2801;50.972;7.856;2022-12-18T07:36:15;11.00;;;4.87;;
5555;SDS011;2801;50.972;7.856;2022-12-18T07:38:42;19.43;;;8.13;;
5555;SDS011;2801;50.972;7.856;2022-12-18T07:41:10;14.53;;;7.33;;
5555;SDS011;2801;50.972;7.856;2022-12-18T07:43:40;14.97;;;7.40;;
5555;SDS011;2801;50.972;7.856;2022-12-18T07:46:09;18.70;;;7.77;;
5555;SDS011;2801;50.972;7.856;2022-12-18T07:48:39;13.60;;;6.27;;
5555;SDS011;2801;50.972;7.856;2022-12-18T07:51:08;14.77;;;6.80;;
5555;SDS011;2801;50.972;7.856;2022-12-18T07:53:39;11.90;;;5.80;;
5555;SDS011;2801;50.972;7.856;2022-12-18T07:56:08;16.47;;;7.60;;
5555;SDS011;2801;50.972;7.856;2022-12-18T07:58:56;9.83;;;4.53;;
5555;SDS011;2801;50.972;7.856;2022-12-18T08:01:25;17.47;;;8.33;;
5555;SDS011;2801;50.972;7.856;2022-12-18T08:03:53;18.20;;;7.37;;
5555;SDS011;2801;50.972;7.856;2022-12-18T08:06:21;17.47;;;8.93;;
5555;SDS011;2801;50.972;7.856;2022-12-18T08:08:52;8.37;;;4.70;;
5555;SDS011;2801;50.972;7.856;2022-12-18T08:11:22;13.97;;;6.00;;
5555;SDS011;2801;50.972;7.856;2022-12-18T08:13:52;8.27;;;4.50;;
5555;SDS011;2801;50.972;7.856;2022-12-18T08:16:21;19.37;;;7.43;;
5555;SDS011;2801;50.972;7.856;2022-12-18T08:18:51;14.47;;;5.30;;
5555;SDS011;2801;50.972;7.856;2022-12-18T08:21:24;15.13;;;7.30;;
5555;SDS011;2801;50.972;7.856;2022-12-18T08:23:54;16.07;;;7.57;;
5555;SDS011;2801;50.972;7.856;2022-12-18T08:26:25;14.13;;;6.93;;
5555;SDS011;2801;50.972;7.856;2022-12-18T08:28:54;16.67;;;6.77;;
5555;SDS011;2801;50.972;7.856;2022-12-18T08:31:23;14.27;;;6.80;;
5555;SDS011;2801;50.972;7.856;2022-12-18T08:33:52;12.47;;;6.00;;
5555;SDS011;2801;50.972;7.856;2022-12-18T08:36:20;19.97;;;9.07;;
5555;SDS011;2801;50.972;7.856;2022-12-18T08:38:51;11.13;;;5.43;;
5555;SDS011;2801;50.972;7.856;2022-12-18T08:41:18;8.13;;;4.43;;
5555;SDS011;2801;50.972;7.856;2022-12-18T08:43:46;11.23;;;5.73;;
5555;SDS011;2801;50.972;7.856;2022-12-18T08:46:34;13.33;;;6.43;;
5555;SDS011;2801;50.972;7.856;2022-12-18T08:49:05;12.93;;;5.50;;
5555;SDS011;2801;50.972;7.856;2022-12-18T08:51:33;13.30;;;5.80;;
5555;SDS011;2801;50.972;7.856;2022-12-18T08:54:00;14.57;;;4.83;;
5555;SDS011;2801;50.972;7.856;2022-12-18T08:56:30;14.53;;;6.20;;
5555;SDS011;2801;50.972;7.856;2022-12-18T08:58:57;8.40;;;4.83;;
5555;SDS011;2801;50.972;7.856;2022-12-18T09:01:24;9.63;;;5.27;;
5555;SDS011;2801;50.972;7.856;2022-12-18T09:03:51;9.50;;;4.00;;
5555;SDS011;2801;50.972;7.856;2022-12-18T09:06:21;8.77;;;4.30;;
5555;SDS011;2801;50.972;7.856;2022-12-18T09:08:49;7.50;;;4.17;;
5555;SDS011;2801;50.972;7.856;2022-12-18T09:11:24;8.57;;;3.97;;
5555;SDS011;2801;50.972;7.856;2022-12-18T09:13:54;14.57;;;6.93;;
5555;SDS011;2801;50.972;7.856;2022-12-18T09:16:22;10.37;;;6.23;;
5555;SDS011;2801;50.972;7.856;2022-12-18T09:18:57;10.77;;;4.53;;
5555;SDS011;2801;50.972;7.856;2022-12-18T09:21:26;13.07;;;6.43;;
5555;SDS011;2801;50.972;7.856;2022-12-18T09:23:58;12.10;;;5.73;;
5555;SDS011;2801;50.972;7.856;2022-12-18T09:26:25;9.03;;;5.17;;
5555;SDS011;2801;50.972;7.856;2022-12-18T09:28:53;5.20;;;3.07;;
5555;SDS011;2801;50.972;7.856;2022-12-18T09:31:20;15.50;;;7.53;;
5555;SDS011;2801;50.972;7.856;2022-12-18T09:33:50;12.53;;;5.93;;
5555;SDS011;2801;50.972;7.856;2022-12-18T09:36:17;6.10;;;3.40;;
5555;SDS011;2801;50.972;7.856;2022-12-18T09:38:45;7.83;;;3.07;;
5555;SDS011;2801;50.972;7.856;2022-12-18T09:41:32;13.20;;;5.63;;
5555;SDS011;2801;50.972;7.856;2022-12-18T09:44:21;10.27;;;3.90;;
5555;SDS011;2801;50.972;7.856;2022-12-18T09:49:59;7.63;;;3.23;;
5555;SDS011;2801;50.972;7.856;2022-12-18T09:52:39;13.57;;;5.40;;
5555;SDS011;2801;50.972;7.856;2022-12-18T10:01:01;12.40;;;5.60;;
5555;SDS011;2801;50.972;7.856;2022-12-18T10:03:33;4.40;;;2.50;;
5555;SDS011;2801;50.972;7.856;2022-12-18T10:06:08;9.37;;;4.63;;
5555;SDS011;2801;50.972;7.856;2022-12-18T10:09:20;9.33;;;4.70;;
5555;SDS011;2801;50.972;7.856;2022-12-18T10:14:57;4.67;;;2.60;;
5555;SDS011;2801;50.972;7.856;2022-12-18T10:17:52;14.73;;;5.33;;
5555;SDS011;2801;50.972;7.856;2022-12-18T10:20:41;8.43;;;3.10;;
5555;SDS011;2801;50.972;7.856;2022-12-18T10:26:13;5.93;;;3.00;;
5555;SDS011;2801;50.972;7.856;2022-12-18T10:28:40;6.23;;;3.20;;
5555;SDS011;2801;50.972;7.856;2022-12-18T10:31:15;16.03;;;6.27;;
5555;SDS011;2801;50.972;7.856;2022-12-18T10:33:49;8.70;;;4.27;;
5555;SDS011;2801;50.972;7.856;2022-12-18T10:36:20;9.27;;;4.37;;
5555;SDS011;2801;50.972;7.856;2022-12-18T10:38:48;8.87;;;4.40;;
5555;SDS011;2801;50.972;7.856;2022-12-18T10:43:48;8.43;;;4.83;;
5555;SDS011;2801;50.972;7.856;2022-12-18T10:46:37;4.33;;;2.73;;
5555;SDS011;2801;50.972;7.856;2022-12-18T10:49:05;9.00;;;5.10;;
5555;SDS011;2801;50.972;7.856;2022-12-18T10:51:45;9.47;;;4.37;;
5555;SDS011;2801;50.972;7.856;2022-12-18T10:54:14;7.20;;;3.43;;
5555;SDS011;2801;50.972;7.856;2022-12-18T10:56:47;7.40;;;3.50;;
5555;SDS011;2801;50.972;7.856;2022-12-18T10:59:16;4.27;;;2.50;;
5555;SDS011;2801;50.972;7.856;2022-12-18T11:01:55;9.60;;;3.53;;
5555;SDS011;2801;50.972;7.856;2022-12-18T11:04:25;8.27;;;3.67;;
5555;SDS011;2801;50.972;7.856;2022-12-18T11:06:58;5.60;;;3.77;;
5555;SDS011;2801;50.972;7.856;2022-12-18T11:12:04;5.43;;;2.93;;
5555;SDS011;2801;50.972;7.856;2022-12-18T11:20:03;9.70;;;4.93;;
5555;SDS011;2801;50.972;7.856;2022-12-18T11:22:53;8.50;;;4.17;;
5555;SDS011;2801;50.972;7.856;2022-12-18T11:25:31;5.57;;;2.83;;
5555;SDS011;2801;50.972;7.856;2022-12-18T11:28:02;5.17;;;3.43;;
5555;SDS011;2801;50.972;7.856;2022-12-18T11:34:11;4.60;;;2.63;;
5555;SDS011;2801;50.972;7.856;2022-12-18T11:36:55;5.23;;;2.77;;
5555;SDS011;2801;50.972;7.856;2022-12-18T11:47:44;3.27;;;2.43;;
5555;SDS011;2801;50.972;7.856;2022-12-18T11:50:31;6.50;;;3.33;;
5555;SDS011;2801;50.972;7.856;2022-12-18T11:53:28;7.10;;;3.23;;
5555;SDS011;2801;50.972;7.856;2022-12-18T11:58:57;13.30;;;6.53;;
5555;SDS011;2801;50.972;7.856;2022-12-18T12:01:52;9.17;;;3.40;;
5555;SDS011;2801;50.972;7.856;2022-12-18T12:10:42;7.70;;;3.73;;
5555;SDS011;2801;50.972;7.856;2022-12-18T12:14:06;9.83;;;4.17;;
5555;SDS011;2801;50.972;7.856;2022-12-18T12:20:16;15.30;;;7.83;;
5555;SDS011;2801;50.972;7.856;2022-12-18T12:23:04;13.33;;;6.73;;
5555;SDS011;2801;50.972;7.856;2022-12-18T12:25:56;13.20;;;6.73;;
5555;SDS011;2801;50.972;7.856;2022-12-18T12:28:44;7.03;;;3.47;;
5555;SDS011;2801;50.972;7.856;2022-12-18T12:34:30;13.57;;;5.67;;
5555;SDS011;2801;50.972;7.856;2022-12-18T12:40:02;7.10;;;3.83;;
5555;SDS011;2801;50.972;7.856;2022-12-18T12:42:54;13.83;;;6.77;;
5555;SDS011;2801;50.972;7.856;2022-12-18T12:51:18;11.63;;;4.00;;
5555;SDS011;2801;50.972;7.856;2022-12-18T12:53:46;9.27;;;5.03;;
5555;SDS011;2801;50.972;7.856;2022-12-18T12:56:16;6.97;;;3.40;;
5555;SDS011;2801;50.972;7.856;2022-12-18T12:58:54;7.23;;;3.70;;
5555;SDS011;2801;50.972;7.856;2022-12-18T13:01:57;12.23;;;6.07;;
5555;SDS011;2801;50.972;7.856;2022-12-18T13:08:21;14.10;;;5.80;;
5555;SDS011;2801;50.972;7.856;2022-12-18T13:10:49;11.53;;;5.27;;
5555;SDS011;2801;50.972;7.856;2022-12-18T13:13:51;10.37;;;3.83;;
5555;SDS011;2801;50.972;7.856;2022-12-18T13:16:23;11.53;;;5.43;;
5555;SDS011;2801;50.972;7.856;2022-12-18T13:18:57;14.77;;;7.30;;
5555;SDS011;2801;50.972;7.856;2022-12-18T13:21:28;11.90;;;5.57;;
5555;SDS011;2801;50.972;7.856;2022-12-18T13:24:15;14.13;;;5.97;;
5555;SDS011;2801;50.972;7.856;2022-12-18T13:26:51;15.47;;;6.40;;
5555;SDS011;2801;50.972;7.856;2022-12-18T13:32:23;21.10;;;9.17;;
5555;SDS011;2801;50.972;7.856;2022-12-18T13:37:52;15.57;;;8.70;;
5555;SDS011;2801;50.972;7.856;2022-12-18T13:40:46;12.17;;;5.13;;
5555;SDS011;2801;50.972;7.856;2022-12-18T13:45:50;24.13;;;12.23;;
5555;SDS011;2801;50.972;7.856;2022-12-18T13:51:49;5.83;;;3.77;;
5555;SDS011;2801;50.972;7.856;2022-12-18T13:54:35;21.70;;;9.57;;
5555;SDS011;2801;50.972;7.856;2022-12-18T13:57:27;13.70;;;7.47;;
5555;SDS011;2801;50.972;7.856;2022-12-18T14:00:46;17.00;;;8.10;;
5555;SDS011;2801;50.972;7.856;2022-12-18T14:03:15;18.33;;;8.90;;
5555;SDS011;2801;50.972;7.856;2022-12-18T14:05:52;14.63;;;6.70;;
5555;SDS011;2801;50.972;7.856;2022-12-18T14:08:29;20.37;;;9.53;;
5555;SDS011;2801;50.972;7.856;2022-12-18T14:11:04;17.20;;;7.90;;
5555;SDS011;2801;50.972;7.856;2022-12-18T14:13:37;18.33;;;8.00;;
5555;SDS011;2801;50.972;7.856;2022-12-18T14:16:11;25.30;;;12.17;;
5555;SDS011;2801;50.972;7.856;2022-12-18T14:21:40;10.43;;;4.70;;
5555;SDS011;2801;50.972;7.856;2022-12-18T14:24:15;20.60;;;10.13;;
5555;SDS011;2801;50.972;7.856;2022-12-18T14:26:48;15.83;;;7.23;;
5555;SDS011;2801;50.972;7.856;2022-12-18T14:29:26;22.17;;;9.40;;
5555;SDS011;2801;50.972;7.856;2022-12-18T14:34:42;16.77;;;7.20;;
5555;SDS011;2801;50.972;7.856;2022-12-18T14:37:20;17.63;;;7.93;;
5555;SDS011;2801;50.972;7.856;2022-12-18T14:42:35;19.57;;;8.87;;
5555;SDS011;2801;50.972;7.856;2022-12-18T14:48:24;8.83;;;4.67;;
5555;SDS011;2801;50.972;7.856;2022-12-18T14:53:38;20.57;;;9.57;;
5555;SDS011;2801;50.972;7.856;2022-12-18T14:58:52;28.90;;;14.07;;
5555;SDS011;2801;50.972;7.856;2022-12-18T15:01:30;22.23;;;9.37;;
5555;SDS011;2801;50.972;7.856;2022-12-18T15:04:04;14.77;;;7.20;;
5555;SDS011;2801;50.972;7.856;2022-12-18T15:12:44;11.00;;;5.67;;
5555;SDS011;2801;50.972;7.856;2022-12-18T15:20:41;17.97;;;7.57;;
5555;SDS011;2801;50.972;7.856;2022-12-18T15:26:04;15.80;;;7.10;;
5555;SDS011;2801;50.972;7.856;2022-12-18T15:28:37;18.13;;;8.03;;
5555;SDS011;2801;50.972;7.856;2022-12-18T15:34:05;20.77;;;10.43;;
5555;SDS011;2801;50.972;7.856;2022-12-18T15:36:39;14.93;;;7.07;;
5555;SDS011;2801;50.972;7.856;2022-12-18T15:39:09;32.10;;;14.20;;
5555;SDS011;2801;50.972;7.856;2022-12-18T15:41:39;12.80;;;7.23;;
5555;SDS011;2801;50.972;7.856;2022-12-18T15:44:21;16.00;;;7.80;;
5555;SDS011;2801;50.972;7.856;2022-12-18T15:46:59;26.43;;;12.10;;
5555;SDS011;2801;50.972;7.856;2022-12-18T15:49:27;19.60;;;9.37;;
5555;SDS011;2801;50.972;7.856;2022-12-18T15:51:58;13.23;;;6.37;;
5555;SDS011;2801;50.972;7.856;2022-12-18T15:54:28;21.23;;;7.53;;
5555;SDS011;2801;50.972;7.856;2022-12-18T15:57:13;24.77;;;9.57;;
5555;SDS011;2801;50.972;7.856;2022-12-18T15:59:50;29.87;;;11.50;;
5555;SDS011;2801;50.972;7.856;2022-12-18T16:02:20;18.90;;;9.10;;
5555;SDS011;2801;50.972;7.856;2022-12-18T16:04:50;19.40;;;8.87;;
5555;SDS011;2801;50.972;7.856;2022-12-18T16:07:18;26.53;;;11.17;;
5555;SDS011;2801;50.972;7.856;2022-12-18T16:09:50;33.40;;;14.53;;
5555;SDS011;2801;50.972;7.856;2022-12-18T16:12:18;13.27;;;7.37;;
5555;SDS011;2801;50.972;7.856;2022-12-18T16:14:49;22.27;;;9.37;;
5555;SDS011;2801;50.972;7.856;2022-12-18T16:17:17;26.90;;;12.07;;
5555;SDS011;2801;50.972;7.856;2022-12-18T16:19:44;22.47;;;10.30;;
5555;SDS011;2801;50.972;7.856;2022-12-18T16:22:19;24.53;;;10.40;;
5555;SDS011;2801;50.972;7.856;2022-12-18T16:24:49;26.83;;;11.33;;
5555;SDS011;2801;50.972;7.856;2022-12-18T16:27:18;45.17;;;16.20;;
5555;SDS011;2801;50.972;7.856;2022-12-18T16:29:45;31.90;;;12.37;;
5555;SDS011;2801;50.972;7.856;2022-12-18T16:32:14;38.30;;;15.13;;
5555;SDS011;2801;50.972;7.856;2022-12-18T16:34:44;24.20;;;10.63;;
5555;SDS011;2801;50.972;7.856;2022-12-18T16:37:12;34.07;;;12.87;;
5555;SDS011;2801;50.972;7.856;2022-12-18T16:39:41;37.23;;;15.47;;
5555;SDS011;2801;50.972;7.856;2022-12-18T16:42:10;19.60;;;7.83;;
5555;SDS011;2801;50.972;7.856;2022-12-18T16:44:44;23.13;;;9.20;;
5555;SDS011;2801;50.972;7.856;2022-12-18T16:47:13;15.53;;;7.97;;
5555;SDS011;2801;50.972;7.856;2022-12-18T16:49:41;18.10;;;8.77;;
5555;SDS011;2801;50.972;7.856;2022-12-18T16:52:10;29.43;;;11.77;;
5555;SDS011;2801;50.972;7.856;2022-12-18T16:54:38;22.27;;;9.33;;
5555;SDS011;2801;50.972;7.856;2022-12-18T16:57:04;34.43;;;14.00;;
5555;SDS011;2801;50.972;7.856;2022-12-18T16:59:35;25.67;;;10.10;;
5555;SDS011;2801;50.972;7.856;2022-12-18T17:02:05;25.37;;;9.87;;
5555;SDS011;2801;50.972;7.856;2022-12-18T17:04:39;28.40;;;11.60;;
5555;SDS011;2801;50.972;7.856;2022-12-18T17:07:07;37.70;;;13.40;;
5555;SDS011;2801;50.972;7.856;2022-12-18T17:09:35;16.33;;;8.37;;
5555;SDS011;2801;50.972;7.856;2022-12-18T17:12:03;31.87;;;10.97;;
5555;SDS011;2801;50.972;7.856;2022-12-18T17:14:31;23.37;;;9.80;;
5555;SDS011;2801;50.972;7.856;2022-12-18T17:16:58;33.33;;;13.33;;
5555;SDS011;2801;50.972;7.856;2022-12-18T17:19:46;24.90;;;10.17;;
5555;SDS011;2801;50.972;7.856;2022-12-18T17:22:13;15.93;;;7.77;;
5555;SDS011;2801;50.972;7.856;2022-12-18T17:24:40;32.67;;;13.27;;
5555;SDS011;2801;50.972;7.856;2022-12-18T17:27:06;27.07;;;11.50;;
5555;SDS011;2801;50.972;7.856;2022-12-18T17:29:34;22.20;;;10.30;;
5555;SDS011;2801;50.972;7.856;2022-12-18T17:32:01;32.13;;;12.13;;
5555;SDS011;2801;50.972;7.856;2022-12-18T17:34:28;24.50;;;10.07;;
5555;SDS011;2801;50.972;7.856;2022-12-18T17:36:56;21.20;;;9.13;;
5555;SDS011;2801;50.972;7.856;2022-12-18T17:39:23;26.83;;;12.20;;
5555;SDS011;2801;50.972;7.856;2022-12-18T17:41:50;31.70;;;13.10;;
5555;SDS011;2801;50.972;7.856;2022-12-18T17:44:17;26.93;;;10.97;;
5555;SDS011;2801;50.972;7.856;2022-12-18T17:46:44;22.67;;;7.63;;
5555;SDS011;2801;50.972;7.856;2022-12-18T17:49:12;21.90;;;8.00;;
5555;SDS011;2801;50.972;7.856;2022-12-18T17:51:40;30.80;;;9.60;;
5555;SDS011;2801;50.972;7.856;2022-12-18T17:54:08;40.23;;;13.83;;
5555;SDS011;2801;50.972;7.856;2022-12-18T17:56:36;27.53;;;12.13;;
5555;SDS011;2801;50.972;7.856;2022-12-18T17:59:04;22.07;;;8.20;;
5555;SDS011;2801;50.972;7.856;2022-12-18T18:01:32;13.67;;;6.43;;